sensor_id;sensor_type;location;lat;lon;timestamp;pressure;altitude;pressure_sealevel;temperature;humidity
63708;BME280;67643;-34.198;22.084;2023-03-03T00:00:32;99524.87;;;23.46;53.91
63708;BME280;67643;-34.198;22.084;2023-03-03T00:03:04;99519.65;;;23.39;53.92
63708;BME280;67643;-34.198;22.084;2023-03-03T00:05:34;99518.21;;;23.31;54.02
63708;BME280;67643;-34.198;22.084;2023-03-03T00:08:03;99515.11;;;23.60;53.52
63708;BME280;67643;-34.198;22.084;2023-03-03T00:10:32;99516.13;;;24.12;52.66
63708;BME280;67643;-34.198;22.084;2023-03-03T00:13:01;99520.08;;;23.48;53.77
63708;BME280;67643;-34.198;22.084;2023-03-03T00:15:30;99516.19;;;23.99;52.76
63708;BME280;67643;-34.198;22.084;2023-03-03T00:17:58;99512.63;;;23.61;53.52
63708;BME280;67643;-34.198;22.084;2023-03-03T00:20:32;99515.03;;;23.51;53.57
63708;BME280;67643;-34.198;22.084;2023-03-03T00:23:13;99510.45;;;23.21;54.27
63708;BME280;67643;-34.198;22.084;2023-03-03T00:25:45;99508.02;;;23.37;53.94
63708;BME280;67643;-34.198;22.084;2023-03-03T00:28:24;99502.19;;;23.41;53.86
63708;BME280;67643;-34.198;22.084;2023-03-03T00:30:53;99494.97;;;23.38;53.43
63708;BME280;67643;-34.198;22.084;2023-03-03T00:33:26;99496.90;;;23.62;53.32
63708;BME280;67643;-34.198;22.084;2023-03-03T00:35:56;99500.79;;;23.20;53.74
63708;BME280;67643;-34.198;22.084;2023-03-03T00:38:27;99500.62;;;24.23;52.28
63708;BME280;67643;-34.198;22.084;2023-03-03T00:40:55;99498.74;;;23.99;52.64
63708;BME280;67643;-34.198;22.084;2023-03-03T00:43:27;99496.56;;;23.00;54.46
63708;BME280;67643;-34.198;22.084;2023-03-03T00:46:00;99486.16;;;23.37;53.68
63708;BME280;67643;-34.198;22.084;2023-03-03T00:48:38;99485.63;;;23.06;54.28
63708;BME280;67643;-34.198;22.084;2023-03-03T00:51:19;99480.73;;;23.10;54.24
63708;BME280;67643;-34.198;22.084;2023-03-03T00:53:53;99477.37;;;23.06;54.29
63708;BME280;67643;-34.198;22.084;2023-03-03T00:56:21;99477.38;;;22.99;54.40
63708;BME280;67643;-34.198;22.084;2023-03-03T00:58:51;99470.01;;;22.89;54.63
63708;BME280;67643;-34.198;22.084;2023-03-03T01:01:19;99468.49;;;22.53;54.46
63708;BME280;67643;-34.198;22.084;2023-03-03T01:03:47;99470.83;;;22.79;54.80
63708;BME280;67643;-34.198;22.084;2023-03-03T01:06:15;99473.75;;;22.84;54.67
63708;BME280;67643;-34.198;22.084;2023-03-03T01:08:44;99471.50;;;22.81;54.70
63708;BME280;67643;-34.198;22.084;2023-03-03T01:11:16;99465.46;;;23.25;54.30
63708;BME280;67643;-34.198;22.084;2023-03-03T01:13:48;99463.86;;;22.87;54.50
63708;BME280;67643;-34.198;22.084;2023-03-03T01:16:18;99459.19;;;22.80;54.64
63708;BME280;67643;-34.198;22.084;2023-03-03T01:18:46;99450.17;;;22.76;54.69
63708;BME280;67643;-34.198;22.084;2023-03-03T01:21:14;99448.55;;;22.70;54.82
63708;BME280;67643;-34.198;22.084;2023-03-03T01:23:42;99444.92;;;22.91;54.42
63708;BME280;67643;-34.198;22.084;2023-03-03T01:26:11;99445.21;;;23.00;54.21
63708;BME280;67643;-34.198;22.084;2023-03-03T01:28:40;99452.43;;;22.92;54.38
63708;BME280;67643;-34.198;22.084;2023-03-03T01:31:08;99452.87;;;23.10;54.53
63708;BME280;67643;-34.198;22.084;2023-03-03T01:33:37;99440.43;;;22.96;54.20
63708;BME280;67643;-34.198;22.084;2023-03-03T01:36:06;99432.20;;;22.99;54.16
63708;BME280;67643;-34.198;22.084;2023-03-03T01:38:35;99430.14;;;22.77;54.57
63708;BME280;67643;-34.198;22.084;2023-03-03T01:41:05;99422.12;;;23.13;53.90
63708;BME280;67643;-34.198;22.084;2023-03-03T01:43:33;99425.73;;;22.91;54.31
63708;BME280;67643;-34.198;22.084;2023-03-03T01:47:08;99423.10;;;23.03;54.02
63708;BME280;67643;-34.198;22.084;2023-03-03T01:49:40;99420.62;;;23.04;54.09
63708;BME280;67643;-34.198;22.084;2023-03-03T01:52:13;99416.87;;;22.93;54.26
63708;BME280;67643;-34.198;22.084;2023-03-03T01:54:51;99416.58;;;22.95;54.26
63708;BME280;67643;-34.198;22.084;2023-03-03T01:57:25;99414.62;;;22.94;54.25
63708;BME280;67643;-34.198;22.084;2023-03-03T01:59:55;99412.73;;;23.15;53.80
63708;BME280;67643;-34.198;22.084;2023-03-03T04:06:05;99420.06;;;19.89;66.39
63708;BME280;67643;-34.198;22.084;2023-03-03T04:08:34;99422.70;;;20.80;61.54
63708;BME280;67643;-34.198;22.084;2023-03-03T04:11:02;99423.58;;;21.24;58.89
63708;BME280;67643;-34.198;22.084;2023-03-03T04:13:31;99422.12;;;21.82;56.88
63708;BME280;67643;-34.198;22.084;2023-03-03T04:15:59;99430.60;;;22.16;55.96
63708;BME280;67643;-34.198;22.084;2023-03-03T04:18:28;99441.35;;;22.18;55.18
63708;BME280;67643;-34.198;22.084;2023-03-03T04:20:57;99441.00;;;22.40;54.63
63708;BME280;67643;-34.198;22.084;2023-03-03T04:23:25;99445.08;;;22.41;54.46
63708;BME280;67643;-34.198;22.084;2023-03-03T04:25:54;99447.88;;;22.67;53.89
63708;BME280;67643;-34.198;22.084;2023-03-03T04:28:22;99444.33;;;22.98;53.43
63708;BME280;67643;-34.198;22.084;2023-03-03T04:30:50;99450.72;;;22.71;53.56
63708;BME280;67643;-34.198;22.084;2023-03-03T04:33:19;99451.80;;;22.77;53.53
63708;BME280;67643;-34.198;22.084;2023-03-03T04:35:48;99451.40;;;22.50;53.85
63708;BME280;67643;-34.198;22.084;2023-03-03T04:38:17;99449.97;;;22.46;53.71
63708;BME280;67643;-34.198;22.084;2023-03-03T04:40:46;99449.98;;;22.70;53.78
63708;BME280;67643;-34.198;22.084;2023-03-03T04:43:15;99449.26;;;22.88;54.13
63708;BME280;67643;-34.198;22.084;2023-03-03T04:45:43;99452.98;;;23.01;54.05
63708;BME280;67643;-34.198;22.084;2023-03-03T04:48:12;99454.93;;;22.70;54.28
63708;BME280;67643;-34.198;22.084;2023-03-03T04:50:42;99459.99;;;22.92;54.38
63708;BME280;67643;-34.198;22.084;2023-03-03T04:53:10;99466.87;;;23.07;54.20
63708;BME280;67643;-34.198;22.084;2023-03-03T04:55:39;99474.35;;;22.81;54.64
63708;BME280;67643;-34.198;22.084;2023-03-03T04:58:08;99478.80;;;22.95;54.41
63708;BME280;67643;-34.198;22.084;2023-03-03T05:00:37;99480.48;;;22.67;54.37
63708;BME280;67643;-34.198;22.084;2023-03-03T05:03:05;99484.16;;;22.81;54.02
63708;BME280;67643;-34.198;22.084;2023-03-03T05:05:34;99494.79;;;22.91;53.34
63708;BME280;67643;-34.198;22.084;2023-03-03T05:08:03;99498.36;;;23.34;52.76
63708;BME280;67643;-34.198;22.084;2023-03-03T05:10:32;99499.31;;;23.19;52.98
63708;BME280;67643;-34.198;22.084;2023-03-03T05:13:00;99498.72;;;23.43;52.56
63708;BME280;67643;-34.198;22.084;2023-03-03T05:15:29;99507.64;;;23.57;52.12
63708;BME280;67643;-34.198;22.084;2023-03-03T05:17:57;99518.54;;;23.17;52.85
63708;BME280;67643;-34.198;22.084;2023-03-03T05:20:26;99519.19;;;23.03;53.07
63708;BME280;67643;-34.198;22.084;2023-03-03T05:22:54;99519.01;;;23.29;52.37
63708;BME280;67643;-34.198;22.084;2023-03-03T05:25:23;99516.19;;;23.00;52.63
63708;BME280;67643;-34.198;22.084;2023-03-03T05:27:51;99514.75;;;23.44;52.60
63708;BME280;67643;-34.198;22.084;2023-03-03T05:30:19;99510.32;;;23.04;52.32
63708;BME280;67643;-34.198;22.084;2023-03-03T05:32:48;99516.03;;;23.19;52.43
63708;BME280;67643;-34.198;22.084;2023-03-03T05:35:16;99522.57;;;23.46;51.98
63708;BME280;67643;-34.198;22.084;2023-03-03T05:37:44;99527.30;;;23.11;52.18
63708;BME280;67643;-34.198;22.084;2023-03-03T05:40:13;99534.48;;;23.63;51.88
63708;BME280;67643;-34.198;22.084;2023-03-03T05:42:41;99535.62;;;23.56;52.11
63708;BME280;67643;-34.198;22.084;2023-03-03T05:45:10;99528.60;;;23.65;51.60
63708;BME280;67643;-34.198;22.084;2023-03-03T05:47:39;99526.96;;;23.80;51.65
63708;BME280;67643;-34.198;22.084;2023-03-03T05:50:08;99534.08;;;23.76;51.68
63708;BME280;67643;-34.198;22.084;2023-03-03T05:52:37;99540.55;;;24.20;50.99
63708;BME280;67643;-34.198;22.084;2023-03-03T05:55:06;99543.57;;;23.72;51.86
63708;BME280;67643;-34.198;22.084;2023-03-03T05:57:35;99539.97;;;24.12;51.16
63708;BME280;67643;-34.198;22.084;2023-03-03T06:00:05;99535.50;;;24.05;51.23
63708;BME280;67643;-34.198;22.084;2023-03-03T06:02:33;99536.12;;;23.91;51.33
63708;BME280;67643;-34.198;22.084;2023-03-03T06:05:02;99535.68;;;24.12;51.25
63708;BME280;67643;-34.198;22.084;2023-03-03T06:07:31;99542.90;;;24.40;50.38
63708;BME280;67643;-34.198;22.084;2023-03-03T06:10:01;99548.83;;;24.16;50.69
63708;BME280;67643;-34.198;22.084;2023-03-03T06:12:29;99548.53;;;24.27;50.36
63708;BME280;67643;-34.198;22.084;2023-03-03T06:14:58;99557.98;;;24.44;50.24
63708;BME280;67643;-34.198;22.084;2023-03-03T06:17:26;99558.82;;;24.09;50.76
63708;BME280;67643;-34.198;22.084;2023-03-03T06:19:54;99561.23;;;24.14;50.73
63708;BME280;67643;-34.198;22.084;2023-03-03T06:22:23;99562.42;;;24.19;50.78
63708;BME280;67643;-34.198;22.084;2023-03-03T06:24:51;99566.91;;;24.42;51.05
63708;BME280;67643;-34.198;22.084;2023-03-03T06:27:20;99571.55;;;24.28;50.75
63708;BME280;67643;-34.198;22.084;2023-03-03T06:29:48;99572.89;;;24.54;50.29
63708;BME280;67643;-34.198;22.084;2023-03-03T06:32:16;99572.67;;;24.85;50.09
63708;BME280;67643;-34.198;22.084;2023-03-03T06:34:44;99570.60;;;24.42;50.38
63708;BME280;67643;-34.198;22.084;2023-03-03T06:37:13;99567.79;;;24.63;49.86
63708;BME280;67643;-34.198;22.084;2023-03-03T06:39:41;99570.00;;;24.77;49.70
63708;BME280;67643;-34.198;22.084;2023-03-03T06:42:10;99570.71;;;24.98;49.43
63708;BME280;67643;-34.198;22.084;2023-03-03T06:44:38;99568.09;;;24.55;50.19
63708;BME280;67643;-34.198;22.084;2023-03-03T06:47:06;99569.38;;;24.79;49.88
63708;BME280;67643;-34.198;22.084;2023-03-03T06:49:35;99569.74;;;24.84;49.78
63708;BME280;67643;-34.198;22.084;2023-03-03T06:52:12;99570.49;;;24.91;49.54
63708;BME280;67643;-34.198;22.084;2023-03-03T06:54:41;99578.10;;;25.07;49.20
63708;BME280;67643;-34.198;22.084;2023-03-03T06:57:17;99582.74;;;25.09;48.65
63708;BME280;67643;-34.198;22.084;2023-03-03T06:59:50;99587.49;;;25.21;48.98
63708;BME280;67643;-34.198;22.084;2023-03-03T07:02:19;99590.81;;;25.13;49.23
63708;BME280;67643;-34.198;22.084;2023-03-03T07:04:48;99596.68;;;24.97;49.11
63708;BME280;67643;-34.198;22.084;2023-03-03T07:07:18;99602.56;;;25.30;48.99
63708;BME280;67643;-34.198;22.084;2023-03-03T07:09:48;99605.89;;;25.29;48.49
63708;BME280;67643;-34.198;22.084;2023-03-03T07:12:20;99606.72;;;25.15;49.08
63708;BME280;67643;-34.198;22.084;2023-03-03T07:14:52;99607.50;;;25.06;48.72
63708;BME280;67643;-34.198;22.084;2023-03-03T07:17:25;99609.44;;;25.61;48.20
63708;BME280;67643;-34.198;22.084;2023-03-03T07:19:53;99606.11;;;25.36;48.76
63708;BME280;67643;-34.198;22.084;2023-03-03T07:22:24;99616.23;;;25.64;48.22
63708;BME280;67643;-34.198;22.084;2023-03-03T07:24:58;99613.31;;;24.22;50.17
63708;BME280;67643;-34.198;22.084;2023-03-03T07:27:30;99613.11;;;25.54;48.38
63708;BME280;67643;-34.198;22.084;2023-03-03T07:30:16;99616.21;;;25.34;48.65
63708;BME280;67643;-34.198;22.084;2023-03-03T07:32:47;99618.64;;;25.33;48.58
63708;BME280;67643;-34.198;22.084;2023-03-03T07:35:29;99612.06;;;25.50;48.27
63708;BME280;67643;-34.198;22.084;2023-03-03T07:38:04;99609.26;;;25.54;48.16
63708;BME280;67643;-34.198;22.084;2023-03-03T07:40:47;99612.67;;;25.14;48.30
63708;BME280;67643;-34.198;22.084;2023-03-03T07:43:30;99613.08;;;25.43;48.25
63708;BME280;67643;-34.198;22.084;2023-03-03T07:46:13;99610.87;;;25.52;48.07
63708;BME280;67643;-34.198;22.084;2023-03-03T07:48:44;99606.66;;;25.54;48.04
63708;BME280;67643;-34.198;22.084;2023-03-03T07:51:18;99606.56;;;25.57;47.94
63708;BME280;67643;-34.198;22.084;2023-03-03T07:53:47;99614.49;;;25.22;48.90
63708;BME280;67643;-34.198;22.084;2023-03-03T07:56:19;99616.05;;;25.38;48.25
63708;BME280;67643;-34.198;22.084;2023-03-03T07:58:49;99619.51;;;25.54;47.94
63708;BME280;67643;-34.198;22.084;2023-03-03T08:01:33;99622.77;;;25.69;47.83
63708;BME280;67643;-34.198;22.084;2023-03-03T08:04:04;99620.11;;;25.85;47.62
63708;BME280;67643;-34.198;22.084;2023-03-03T08:06:43;99615.87;;;25.55;47.75
63708;BME280;67643;-34.198;22.084;2023-03-03T08:09:51;99620.15;;;25.69;47.54
63708;BME280;67643;-34.198;22.084;2023-03-03T08:12:31;99624.05;;;25.97;47.58
63708;BME280;67643;-34.198;22.084;2023-03-03T08:15:21;99623.60;;;25.89;47.73
63708;BME280;67643;-34.198;22.084;2023-03-03T08:17:51;99622.68;;;25.44;48.09
63708;BME280;67643;-34.198;22.084;2023-03-03T08:20:42;99627.88;;;25.97;47.69
63708;BME280;67643;-34.198;22.084;2023-03-03T08:23:12;99625.77;;;26.07;47.60
63708;BME280;67643;-34.198;22.084;2023-03-03T08:25:40;99625.53;;;25.33;48.44
63708;BME280;67643;-34.198;22.084;2023-03-03T08:28:09;99627.20;;;25.84;48.16
63708;BME280;67643;-34.198;22.084;2023-03-03T08:30:37;99633.08;;;25.85;47.65
63708;BME280;67643;-34.198;22.084;2023-03-03T08:33:05;99635.83;;;26.10;47.61
63708;BME280;67643;-34.198;22.084;2023-03-03T08:35:34;99635.04;;;25.84;47.54
63708;BME280;67643;-34.198;22.084;2023-03-03T08:38:03;99636.85;;;25.94;47.33
63708;BME280;67643;-34.198;22.084;2023-03-03T08:40:32;99632.20;;;26.03;47.58
63708;BME280;67643;-34.198;22.084;2023-03-03T08:43:01;99634.14;;;25.94;47.62
63708;BME280;67643;-34.198;22.084;2023-03-03T08:45:31;99633.55;;;25.63;47.65
63708;BME280;67643;-34.198;22.084;2023-03-03T08:47:59;99634.54;;;25.67;47.48
63708;BME280;67643;-34.198;22.084;2023-03-03T08:50:29;99641.97;;;25.56;47.78
63708;BME280;67643;-34.198;22.084;2023-03-03T08:52:59;99644.83;;;25.82;47.63
63708;BME280;67643;-34.198;22.084;2023-03-03T08:55:27;99635.36;;;25.88;47.44
63708;BME280;67643;-34.198;22.084;2023-03-03T08:57:56;99634.69;;;25.52;47.60
63708;BME280;67643;-34.198;22.084;2023-03-03T09:00:25;99639.02;;;26.00;47.30
63708;BME280;67643;-34.198;22.084;2023-03-03T09:02:54;99634.90;;;25.63;47.50
63708;BME280;67643;-34.198;22.084;2023-03-03T09:05:27;99633.72;;;25.76;47.26
63708;BME280;67643;-34.198;22.084;2023-03-03T09:07:55;99636.90;;;25.96;47.35
63708;BME280;67643;-34.198;22.084;2023-03-03T09:10:26;99635.84;;;25.68;47.45
63708;BME280;67643;-34.198;22.084;2023-03-03T09:12:57;99638.26;;;25.92;46.98
63708;BME280;67643;-34.198;22.084;2023-03-03T09:15:27;99638.97;;;25.82;47.05
63708;BME280;67643;-34.198;22.084;2023-03-03T09:17:58;99636.35;;;25.64;47.29
63708;BME280;67643;-34.198;22.084;2023-03-03T09:20:34;99651.07;;;25.53;47.10
63708;BME280;67643;-34.198;22.084;2023-03-03T09:23:28;99644.87;;;25.93;46.71
63708;BME280;67643;-34.198;22.084;2023-03-03T09:25:58;99635.34;;;26.05;46.43
63708;BME280;67643;-34.198;22.084;2023-03-03T09:28:33;99631.69;;;26.06;46.41
63708;BME280;67643;-34.198;22.084;2023-03-03T09:31:02;99635.88;;;26.01;46.45
63708;BME280;67643;-34.198;22.084;2023-03-03T09:33:40;99635.72;;;25.98;46.16
63708;BME280;67643;-34.198;22.084;2023-03-03T09:36:20;99637.96;;;25.86;46.32
63708;BME280;67643;-34.198;22.084;2023-03-03T09:38:50;99640.90;;;26.09;46.25
63708;BME280;67643;-34.198;22.084;2023-03-03T09:42:54;99641.01;;;26.00;45.97
63708;BME280;67643;-34.198;22.084;2023-03-03T09:45:38;99641.59;;;25.64;46.43
63708;BME280;67643;-34.198;22.084;2023-03-03T09:49:22;99644.09;;;26.33;45.69
63708;BME280;67643;-34.198;22.084;2023-03-03T09:52:04;99646.79;;;26.05;46.11
63708;BME280;67643;-34.198;22.084;2023-03-03T09:54:47;99650.10;;;26.28;45.74
63708;BME280;67643;-34.198;22.084;2023-03-03T09:57:28;99647.21;;;26.29;46.43
63708;BME280;67643;-34.198;22.084;2023-03-03T10:00:12;99648.59;;;26.13;46.22
63708;BME280;67643;-34.198;22.084;2023-03-03T12:07:49;99641.61;;;24.45;54.89
63708;BME280;67643;-34.198;22.084;2023-03-03T12:10:26;99635.60;;;25.78;50.05
63708;BME280;67643;-34.198;22.084;2023-03-03T12:13:02;99638.69;;;26.66;47.26
63708;BME280;67643;-34.198;22.084;2023-03-03T12:15:39;99641.24;;;27.21;46.59
63708;BME280;67643;-34.198;22.084;2023-03-03T12:18:29;99638.07;;;27.27;45.64
63708;BME280;67643;-34.198;22.084;2023-03-03T12:21:16;99635.75;;;27.66;44.83
63708;BME280;67643;-34.198;22.084;2023-03-03T12:23:59;99635.32;;;27.61;45.01
63708;BME280;67643;-34.198;22.084;2023-03-03T12:26:39;99640.87;;;28.08;44.17
63708;BME280;67643;-34.198;22.084;2023-03-03T12:29:21;99641.47;;;27.86;44.07
63708;BME280;67643;-34.198;22.084;2023-03-03T12:31:57;99646.02;;;27.52;44.24
63708;BME280;67643;-34.198;22.084;2023-03-03T12:34:33;99645.28;;;28.24;43.66
63708;BME280;67643;-34.198;22.084;2023-03-03T12:37:22;99642.99;;;28.21;43.23
63708;BME280;67643;-34.198;22.084;2023-03-03T12:40:02;99640.87;;;28.30;43.38
63708;BME280;67643;-34.198;22.084;2023-03-03T12:42:41;99641.26;;;28.32;43.33
63708;BME280;67643;-34.198;22.084;2023-03-03T12:45:29;99644.16;;;28.48;42.98
63708;BME280;67643;-34.198;22.084;2023-03-03T12:48:07;99641.95;;;28.22;42.88
63708;BME280;67643;-34.198;22.084;2023-03-03T12:50:42;99641.95;;;28.02;42.64
63708;BME280;67643;-34.198;22.084;2023-03-03T12:53:25;99641.92;;;28.18;42.66
63708;BME280;67643;-34.198;22.084;2023-03-03T12:56:03;99642.49;;;28.35;42.33
63708;BME280;67643;-34.198;22.084;2023-03-03T12:58:40;99642.55;;;28.35;41.99
63708;BME280;67643;-34.198;22.084;2023-03-03T13:01:19;99641.23;;;28.15;42.15
63708;BME280;67643;-34.198;22.084;2023-03-03T13:03:57;99643.51;;;28.64;42.10
63708;BME280;67643;-34.198;22.084;2023-03-03T13:06:30;99635.73;;;28.33;41.77
63708;BME280;67643;-34.198;22.084;2023-03-03T13:09:10;99637.56;;;28.24;41.93
63708;BME280;67643;-34.198;22.084;2023-03-03T13:11:59;99635.62;;;28.51;41.84
63708;BME280;67643;-34.198;22.084;2023-03-03T13:14:36;99640.10;;;28.21;42.05
63708;BME280;67643;-34.198;22.084;2023-03-03T13:17:17;99640.19;;;28.19;42.10
63708;BME280;67643;-34.198;22.084;2023-03-03T13:19:53;99641.05;;;28.03;42.28
63708;BME280;67643;-34.198;22.084;2023-03-03T13:22:32;99642.64;;;28.73;42.04
63708;BME280;67643;-34.198;22.084;2023-03-03T13:25:07;99641.89;;;28.19;42.20
63708;BME280;67643;-34.198;22.084;2023-03-03T13:27:46;99639.13;;;28.47;41.85
63708;BME280;67643;-34.198;22.084;2023-03-03T13:30:18;99635.21;;;28.32;42.04
63708;BME280;67643;-34.198;22.084;2023-03-03T13:32:55;99633.59;;;28.82;41.77
63708;BME280;67643;-34.198;22.084;2023-03-03T13:35:35;99628.64;;;28.23;42.22
63708;BME280;67643;-34.198;22.084;2023-03-03T13:38:12;99629.81;;;28.54;41.81
63708;BME280;67643;-34.198;22.084;2023-03-03T13:40:43;99629.12;;;28.28;42.18
63708;BME280;67643;-34.198;22.084;2023-03-03T13:43:18;99635.81;;;28.37;42.06
63708;BME280;67643;-34.198;22.084;2023-03-03T13:45:56;99638.18;;;28.14;42.39
63708;BME280;67643;-34.198;22.084;2023-03-03T13:48:41;99640.33;;;28.29;42.20
63708;BME280;67643;-34.198;22.084;2023-03-03T13:51:20;99635.91;;;28.45;41.98
63708;BME280;67643;-34.198;22.084;2023-03-03T13:53:56;99641.81;;;28.89;41.38
63708;BME280;67643;-34.198;22.084;2023-03-03T13:56:40;99645.63;;;28.61;41.77
63708;BME280;67643;-34.198;22.084;2023-03-03T13:59:18;99643.35;;;28.62;41.82
63708;BME280;67643;-34.198;22.084;2023-03-03T14:01:56;99644.72;;;28.35;41.90
63708;BME280;67643;-34.198;22.084;2023-03-03T14:04:35;99648.76;;;28.56;41.52
63708;BME280;67643;-34.198;22.084;2023-03-03T14:07:12;99647.67;;;28.71;41.66
63708;BME280;67643;-34.198;22.084;2023-03-03T14:09:52;99645.57;;;28.72;41.66
63708;BME280;67643;-34.198;22.084;2023-03-03T14:12:33;99650.92;;;28.66;41.76
63708;BME280;67643;-34.198;22.084;2023-03-03T14:15:16;99646.65;;;28.44;42.02
63708;BME280;67643;-34.198;22.084;2023-03-03T14:17:56;99646.41;;;28.73;41.63
63708;BME280;67643;-34.198;22.084;2023-03-03T14:20:31;99649.63;;;28.43;41.94
63708;BME280;67643;-34.198;22.084;2023-03-03T14:23:03;99648.11;;;28.51;41.91
63708;BME280;67643;-34.198;22.084;2023-03-03T14:25:52;99649.81;;;28.66;41.95
63708;BME280;67643;-34.198;22.084;2023-03-03T14:28:23;99656.59;;;28.49;41.91
63708;BME280;67643;-34.198;22.084;2023-03-03T14:30:55;99658.60;;;28.09;42.44
63708;BME280;67643;-34.198;22.084;2023-03-03T14:33:29;99655.99;;;27.88;42.79
63708;BME280;67643;-34.198;22.084;2023-03-03T14:36:04;99656.57;;;28.04;42.59
63708;BME280;67643;-34.198;22.084;2023-03-03T14:38:39;99660.19;;;28.11;42.53
63708;BME280;67643;-34.198;22.084;2023-03-03T14:41:15;99664.44;;;27.93;42.88
63708;BME280;67643;-34.198;22.084;2023-03-03T14:43:54;99672.41;;;28.43;42.95
63708;BME280;67643;-34.198;22.084;2023-03-03T14:46:32;99678.94;;;28.08;42.82
63708;BME280;67643;-34.198;22.084;2023-03-03T14:49:04;99683.41;;;28.20;42.96
63708;BME280;67643;-34.198;22.084;2023-03-03T14:51:40;99690.88;;;27.91;43.09
63708;BME280;67643;-34.198;22.084;2023-03-03T14:54:19;99696.69;;;27.89;43.18
63708;BME280;67643;-34.198;22.084;2023-03-03T14:57:09;99701.65;;;27.85;43.24
63708;BME280;67643;-34.198;22.084;2023-03-03T14:59:38;99703.92;;;27.70;43.51
63708;BME280;67643;-34.198;22.084;2023-03-03T15:02:47;99700.11;;;28.03;43.12
63708;BME280;67643;-34.198;22.084;2023-03-03T15:05:28;99702.84;;;27.95;43.57
63708;BME280;67643;-34.198;22.084;2023-03-03T15:07:57;99705.28;;;27.76;43.49
63708;BME280;67643;-34.198;22.084;2023-03-03T15:10:37;99707.15;;;27.69;43.67
63708;BME280;67643;-34.198;22.084;2023-03-03T15:13:38;99707.26;;;27.74;43.51
63708;BME280;67643;-34.198;22.084;2023-03-03T15:16:15;99711.18;;;27.70;43.33
63708;BME280;67643;-34.198;22.084;2023-03-03T15:19:45;99718.60;;;27.71;43.61
63708;BME280;67643;-34.198;22.084;2023-03-03T15:22:21;99725.82;;;27.56;43.82
63708;BME280;67643;-34.198;22.084;2023-03-03T15:24:57;99725.36;;;27.71;43.57
63708;BME280;67643;-34.198;22.084;2023-03-03T15:27:33;99723.48;;;27.85;43.38
63708;BME280;67643;-34.198;22.084;2023-03-03T15:30:08;99721.78;;;27.61;43.36
63708;BME280;67643;-34.198;22.084;2023-03-03T15:32:47;99721.34;;;27.64;43.59
63708;BME280;67643;-34.198;22.084;2023-03-03T15:35:26;99721.41;;;27.99;43.07
63708;BME280;67643;-34.198;22.084;2023-03-03T15:38:01;99718.43;;;27.81;43.27
63708;BME280;67643;-34.198;22.084;2023-03-03T15:40:36;99719.46;;;27.72;43.40
63708;BME280;67643;-34.198;22.084;2023-03-03T15:43:17;99721.83;;;27.55;43.65
63708;BME280;67643;-34.198;22.084;2023-03-03T15:45:51;99724.65;;;27.35;43.95
63708;BME280;67643;-34.198;22.084;2023-03-03T15:48:39;99726.17;;;27.55;43.97
63708;BME280;67643;-34.198;22.084;2023-03-03T15:51:16;99725.04;;;27.37;43.91
63708;BME280;67643;-34.198;22.084;2023-03-03T15:54:03;99726.88;;;27.54;43.95
63708;BME280;67643;-34.198;22.084;2023-03-03T15:56:39;99728.73;;;27.52;43.95
63708;BME280;67643;-34.198;22.084;2023-03-03T15:59:26;99729.36;;;27.54;43.94
63708;BME280;67643;-34.198;22.084;2023-03-03T16:02:08;99732.19;;;27.59;43.83
63708;BME280;67643;-34.198;22.084;2023-03-03T16:04:47;99732.87;;;27.26;43.95
63708;BME280;67643;-34.198;22.084;2023-03-03T16:07:29;99741.09;;;27.70;44.06
63708;BME280;67643;-34.198;22.084;2023-03-03T16:10:07;99733.14;;;27.53;44.27
63708;BME280;67643;-34.198;22.084;2023-03-03T16:12:46;99727.52;;;27.73;43.92
63708;BME280;67643;-34.198;22.084;2023-03-03T16:15:26;99725.79;;;27.45;43.96
63708;BME280;67643;-34.198;22.084;2023-03-03T16:18:04;99733.85;;;26.96;44.70
63708;BME280;67643;-34.198;22.084;2023-03-03T16:20:42;99745.47;;;26.99;44.46
63708;BME280;67643;-34.198;22.084;2023-03-03T16:23:21;99752.88;;;27.51;44.33
63708;BME280;67643;-34.198;22.084;2023-03-03T16:26:01;99751.11;;;27.10;44.17
63708;BME280;67643;-34.198;22.084;2023-03-03T16:28:41;99750.78;;;27.21;43.97
63708;BME280;67643;-34.198;22.084;2023-03-03T16:31:16;99751.46;;;27.17;43.99
63708;BME280;67643;-34.198;22.084;2023-03-03T16:33:51;99752.57;;;27.10;44.04
63708;BME280;67643;-34.198;22.084;2023-03-03T16:36:31;99759.18;;;27.01;44.07
63708;BME280;67643;-34.198;22.084;2023-03-03T16:39:04;99769.46;;;26.94;44.15
63708;BME280;67643;-34.198;22.084;2023-03-03T16:41:44;99774.63;;;27.44;44.17
63708;BME280;67643;-34.198;22.084;2023-03-03T16:44:28;99781.47;;;27.33;44.28
63708;BME280;67643;-34.198;22.084;2023-03-03T16:47:09;99785.49;;;27.28;44.37
63708;BME280;67643;-34.198;22.084;2023-03-03T16:49:47;99783.83;;;27.22;44.57
63708;BME280;67643;-34.198;22.084;2023-03-03T16:52:28;99783.80;;;27.19;44.58
63708;BME280;67643;-34.198;22.084;2023-03-03T16:55:07;99784.10;;;27.23;44.50
63708;BME280;67643;-34.198;22.084;2023-03-03T16:57:47;99789.16;;;27.16;44.62
63708;BME280;67643;-34.198;22.084;2023-03-03T17:00:21;99795.11;;;27.05;44.69
63708;BME280;67643;-34.198;22.084;2023-03-03T17:03:03;99799.96;;;27.07;44.63
63708;BME280;67643;-34.198;22.084;2023-03-03T17:05:44;99806.88;;;27.01;44.70
63708;BME280;67643;-34.198;22.084;2023-03-03T17:08:34;99812.28;;;27.03;44.63
63708;BME280;67643;-34.198;22.084;2023-03-03T17:11:12;99826.46;;;27.05;44.57
63708;BME280;67643;-34.198;22.084;2023-03-03T17:14:18;99846.23;;;27.09;44.50
63708;BME280;67643;-34.198;22.084;2023-03-03T17:16:55;99861.63;;;26.78;44.51
63708;BME280;67643;-34.198;22.084;2023-03-03T17:19:38;99865.72;;;27.09;44.41
63708;BME280;67643;-34.198;22.084;2023-03-03T17:22:15;99862.42;;;26.72;44.58
63708;BME280;67643;-34.198;22.084;2023-03-03T17:24:54;99859.12;;;26.72;44.14
63708;BME280;67643;-34.198;22.084;2023-03-03T17:27:38;99862.36;;;26.91;44.28
63708;BME280;67643;-34.198;22.084;2023-03-03T17:30:16;99870.21;;;27.26;44.11